Time;durP1;ratioP1;P1;durP2;ratioP2;P2;SDS_P1;SDS_P2;PMS_P1;PMS_P2;Temp;Humidity;BMP_temperature;BMP_pressure;BME280_temperature;BME280_humidity;BME280_pressure;Samples;Min_cycle;Max_cycle;Signal;HPM_P1;HPM_P2
2022/02/09 00:02:22;;;;;;;3.63;1.00;;;7.60;99.90;;;;;;6218235;23;20549;-62
2022/02/09 00:05:27;;;;;;;3.25;1.27;;;7.60;99.90;;;;;;6218354;23;20133;-62
2022/02/09 00:07:57;;;;;;;1.58;1.00;;;7.60;99.90;;;;;;6219965;23;20172;-62
2022/02/09 00:10:23;;;;;;;1.98;1.05;;;7.50;99.90;;;;;;6222991;23;20129;-61
2022/02/09 00:13:29;;;;;;;2.33;1.20;;;7.50;99.90;;;;;;6222430;23;20200;-62
2022/02/09 00:15:52;;;;;;;4.30;1.30;;;7.50;99.90;;;;;;6220954;23;20145;-63
2022/02/09 00:21:16;;;;;;;2.05;1.50;;;7.50;99.90;;;;;;6222056;23;20149;-63
2022/02/09 00:24:01;;;;;;;3.58;2.05;;;7.50;99.90;;;;;;6221779;23;20165;-62
2022/02/09 00:30:12;;;;;;;2.88;1.73;;;7.60;99.90;;;;;;6220452;23;20239;-63
2022/02/09 00:35:08;;;;;;;5.95;2.80;;;7.60;99.90;;;;;;6222684;23;20190;-63
2022/02/09 00:37:45;;;;;;;5.47;3.15;;;7.60;99.90;;;;;;6221742;23;20471;-63
2022/02/09 00:40:49;;;;;;;4.60;3.00;;;7.70;99.90;;;;;;6222425;23;20129;-63
2022/02/09 01:56:18;;;;;;;5.55;4.32;;;8.30;99.90;;;;;;6216928;23;20216;-63
2022/02/09 01:58:45;;;;;;;5.65;4.35;;;8.30;99.90;;;;;;6216671;23;20141;-63
2022/02/09 02:01:11;;;;;;;6.20;4.38;;;8.40;99.90;;;;;;6216719;23;20176;-63
2022/02/09 02:03:36;;;;;;;5.85;4.50;;;8.40;99.90;;;;;;6216840;23;20144;-64
2022/02/09 02:06:02;;;;;;;5.20;4.00;;;8.40;99.90;;;;;;6216649;23;20198;-63
2022/02/09 02:08:29;;;;;;;4.50;3.90;;;8.50;99.90;;;;;;6216638;23;20596;-64
2022/02/09 02:11:09;;;;;;;5.05;4.00;;;8.50;99.90;;;;;;6216733;23;20165;-63
2022/02/09 02:13:55;;;;;;;5.55;3.88;;;8.50;99.90;;;;;;6216896;23;20514;-63
2022/02/09 02:19:04;;;;;;;4.90;3.70;;;8.50;99.90;;;;;;6217216;23;20622;-62
2022/02/09 02:21:50;;;;;;;5.22;3.47;;;8.50;99.90;;;;;;6216961;23;20129;-63
2022/02/09 02:24:44;;;;;;;4.95;3.33;;;8.50;99.90;;;;;;6216486;23;20159;-63
2022/02/09 02:38:31;;;;;;;6.35;4.88;;;8.70;99.90;;;;;;6216530;23;20147;-63
2022/02/09 02:43:58;;;;;;;7.63;5.47;;;8.70;99.90;;;;;;6216927;23;20341;-64
2022/02/09 03:13:27;;;;;;;12.73;8.57;;;8.90;99.90;;;;;;6216179;23;20137;-62
2022/02/09 03:16:02;;;;;;;12.68;8.63;;;8.90;99.90;;;;;;6216578;23;20132;-62
2022/02/09 03:21:16;;;;;;;12.15;8.73;;;8.90;99.90;;;;;;6216718;23;20144;-62
2022/02/09 03:23:50;;;;;;;12.00;8.45;;;8.90;99.90;;;;;;6216526;23;20208;-62
2022/02/09 03:55:20;;;;;;;16.67;11.73;;;8.90;99.90;;;;;;6216388;23;20619;-62
2022/02/09 03:57:46;;;;;;;17.30;10.85;;;8.90;99.90;;;;;;6216336;23;20133;-62
2022/02/09 04:00:23;;;;;;;14.93;10.50;;;8.90;99.90;;;;;;6216410;23;20156;-62
2022/02/09 04:02:53;;;;;;;15.48;10.75;;;8.90;99.90;;;;;;6216106;23;20599;-62
2022/02/09 04:05:19;;;;;;;14.60;10.30;;;8.90;99.90;;;;;;6217798;23;20145;-63
2022/02/09 04:07:45;;;;;;;16.58;10.82;;;9.00;99.90;;;;;;6224019;23;20169;-63
2022/02/09 04:10:17;;;;;;;15.82;10.45;;;9.00;99.90;;;;;;6218308;23;20224;-63
2022/02/09 04:13:15;;;;;;;14.02;10.10;;;9.00;99.90;;;;;;6217712;23;20432;-63
2022/02/09 04:16:07;;;;;;;16.13;11.10;;;9.00;99.90;;;;;;6217568;23;20149;-62
2022/02/09 04:19:03;;;;;;;15.63;10.25;;;9.00;99.90;;;;;;6216727;23;20164;-62
2022/02/09 04:37:54;;;;;;;13.27;9.55;;;8.90;99.90;;;;;;6217746;23;20513;-63
2022/02/09 04:40:51;;;;;;;14.20;8.95;;;8.90;99.90;;;;;;6217710;23;20216;-63
2022/02/09 04:43:25;;;;;;;13.10;8.60;;;8.80;99.90;;;;;;6217501;23;20152;-62
2022/02/09 04:51:18;;;;;;;11.75;7.78;;;8.80;99.90;;;;;;6217823;23;20157;-62
2022/02/09 04:59:11;;;;;;;10.05;7.22;;;8.90;99.90;;;;;;6217610;23;20177;-63
2022/02/09 05:04:36;;;;;;;8.93;6.55;;;8.80;99.90;;;;;;6217564;23;20160;-62
2022/02/09 05:25:48;;;;;;;9.63;7.13;;;8.90;99.90;;;;;;6219525;23;20204;-62
2022/02/09 05:28:19;;;;;;;9.02;6.82;;;9.00;99.90;;;;;;6218901;23;20157;-62
2022/02/09 05:30:51;;;;;;;8.68;6.68;;;9.00;99.90;;;;;;6218699;23;20172;-63
2022/02/09 05:33:17;;;;;;;8.48;6.47;;;9.00;99.90;;;;;;6219921;23;20143;-63
2022/02/09 05:35:43;;;;;;;11.40;7.40;;;9.00;99.90;;;;;;6219468;23;20173;-63
2022/02/09 05:38:09;;;;;;;9.80;7.28;;;9.10;99.90;;;;;;6219184;23;20150;-63
2022/02/09 05:40:34;;;;;;;10.48;7.10;;;9.10;99.90;;;;;;6219451;23;20145;-63
2022/02/09 05:43:00;;;;;;;8.10;6.72;;;9.10;99.90;;;;;;6219308;23;20151;-63
2022/02/09 05:45:32;;;;;;;8.98;6.63;;;9.10;99.90;;;;;;6219608;23;20203;-62
2022/02/09 05:48:35;;;;;;;10.10;6.25;;;9.10;99.90;;;;;;6219443;23;20161;-63
2022/02/09 05:53:19;;;;;;;7.97;6.18;;;9.10;99.90;;;;;;6219254;23;20216;-62
2022/02/09 05:55:48;;;;;;;7.43;6.05;;;9.10;99.90;;;;;;6218859;23;20129;-62
2022/02/09 06:00:56;;;;;;;6.65;5.70;;;9.10;99.90;;;;;;6218622;23;20540;-62
2022/02/09 06:03:21;;;;;;;8.25;5.88;;;9.10;99.90;;;;;;6216576;23;20144;-62
2022/02/09 06:05:47;;;;;;;6.63;5.57;;;9.10;99.90;;;;;;6216602;23;20141;-62
2022/02/09 06:08:12;;;;;;;7.82;5.85;;;9.10;99.90;;;;;;6216966;23;20418;-62
2022/02/09 06:10:40;;;;;;;7.30;5.72;;;9.10;99.90;;;;;;6216790;23;20246;-63
2022/02/09 06:15:59;;;;;;;7.80;5.75;;;9.10;99.90;;;;;;6216833;23;20479;-63
2022/02/09 06:21:03;;;;;;;7.38;5.45;;;9.10;99.90;;;;;;6217017;23;20136;-62
2022/02/09 06:23:29;;;;;;;5.82;4.68;;;9.10;99.90;;;;;;6216722;23;20141;-62
2022/02/09 06:25:55;;;;;;;5.65;4.93;;;9.10;99.90;;;;;;6216915;23;20214;-63
2022/02/09 06:28:21;;;;;;;5.40;4.65;;;9.00;99.90;;;;;;6216356;23;20255;-62
2022/02/09 06:30:46;;;;;;;5.43;4.40;;;9.10;99.90;;;;;;6216187;23;20554;-62
2022/02/09 06:33:13;;;;;;;5.40;4.03;;;9.10;99.90;;;;;;6216624;23;20126;-62
2022/02/09 06:35:39;;;;;;;4.63;4.13;;;9.10;99.90;;;;;;6216214;23;20141;-62
2022/02/09 06:38:04;;;;;;;4.35;3.90;;;9.00;99.90;;;;;;6216289;23;20507;-63
2022/02/09 06:40:30;;;;;;;4.90;3.35;;;9.00;99.90;;;;;;6216346;23;20140;-62
2022/02/09 06:42:56;;;;;;;3.92;3.40;;;9.00;99.90;;;;;;6216616;23;20145;-63
2022/02/09 06:45:26;;;;;;;4.53;3.08;;;9.00;99.90;;;;;;6216259;23;20511;-64
2022/02/09 06:47:51;;;;;;;4.25;3.08;;;9.00;99.90;;;;;;6215986;23;20169;-62
2022/02/09 06:50:37;;;;;;;3.00;2.70;;;8.90;99.90;;;;;;6216223;23;20194;-62
2022/02/09 06:53:14;;;;;;;3.83;3.17;;;8.90;99.90;;;;;;6216597;23;20125;-63
2022/02/09 06:55:49;;;;;;;3.25;2.95;;;8.90;99.90;;;;;;6216204;23;20220;-62
2022/02/09 07:01:07;;;;;;;4.63;3.38;;;8.90;99.90;;;;;;6203952;23;20447;-63
2022/02/09 07:03:33;;;;;;;3.70;3.20;;;8.90;99.90;;;;;;6216651;23;20148;-62
2022/02/09 07:05:59;;;;;;;5.35;3.78;;;8.90;99.90;;;;;;6216195;23;20145;-63
2022/02/09 07:08:24;;;;;;;5.25;3.63;;;8.90;99.90;;;;;;6216150;23;20179;-62
2022/02/09 07:10:50;;;;;;;5.40;4.22;;;8.80;99.90;;;;;;6215918;23;20171;-62
2022/02/09 07:13:15;;;;;;;5.78;4.10;;;8.80;99.90;;;;;;6216449;23;20151;-62
2022/02/09 07:15:46;;;;;;;6.18;4.25;;;8.80;99.90;;;;;;6215811;23;20146;-62
2022/02/09 07:18:13;;;;;;;5.32;4.75;;;8.90;99.90;;;;;;6216523;23;20212;-64
2022/02/09 07:23:19;;;;;;;8.52;5.85;;;8.90;99.90;;;;;;6216352;23;20156;-63
2022/02/09 07:25:49;;;;;;;8.43;6.18;;;8.90;99.90;;;;;;6216484;23;20129;-63
2022/02/09 07:28:15;;;;;;;8.18;6.18;;;8.90;99.90;;;;;;6216629;23;20179;-62
2022/02/09 07:30:43;;;;;;;7.65;6.18;;;9.00;99.90;;;;;;6215675;23;20573;-62
2022/02/09 07:33:09;;;;;;;7.70;6.22;;;9.00;99.90;;;;;;6216073;23;20126;-62
2022/02/09 07:35:38;;;;;;;10.13;6.50;;;8.90;99.90;;;;;;6216109;23;20438;-63
2022/02/09 07:38:03;;;;;;;9.32;7.03;;;9.00;99.90;;;;;;6216278;23;20149;-62
2022/02/09 07:40:29;;;;;;;10.50;6.97;;;8.90;99.90;;;;;;6215917;23;20149;-62
2022/02/09 07:42:59;;;;;;;11.93;8.18;;;8.90;99.90;;;;;;6216550;23;20153;-63
2022/02/09 07:53:48;;;;;;;11.77;8.88;;;9.00;99.90;;;;;;6217860;23;20140;-62
2022/02/09 07:56:14;;;;;;;11.27;8.43;;;9.00;99.90;;;;;;6217841;23;20525;-62
2022/02/09 07:58:39;;;;;;;13.18;8.40;;;9.00;99.90;;;;;;6217897;23;20141;-63
2022/02/09 08:01:05;;;;;;;12.73;9.10;;;9.00;99.90;;;;;;6217722;23;20141;-63
2022/02/09 08:03:31;;;;;;;12.20;9.30;;;9.00;99.90;;;;;;6217717;23;20149;-63
2022/02/09 08:05:57;;;;;;;12.70;8.48;;;9.00;99.90;;;;;;6217898;23;20458;-63
2022/02/09 08:08:28;;;;;;;12.07;8.50;;;9.00;99.90;;;;;;6217500;23;20164;-63
2022/02/09 08:10:57;;;;;;;12.48;8.80;;;9.00;99.90;;;;;;6217895;23;20483;-62
2022/02/09 08:26:03;;;;;;;11.90;8.32;;;9.10;99.90;;;;;;6218027;23;20199;-62
2022/02/09 08:30:22;;;;;;;11.55;8.48;;;9.10;99.90;;;;;;6217484;23;20156;-63
2022/02/09 08:32:56;;;;;;;9.18;7.30;;;9.10;99.90;;;;;;6218852;23;20153;-63
2022/02/09 08:35:21;;;;;;;10.60;7.97;;;9.20;99.90;;;;;;6219540;23;20148;-63
2022/02/09 08:37:47;;;;;;;11.10;8.32;;;9.20;99.90;;;;;;6219239;23;20141;-63
2022/02/09 08:40:17;;;;;;;12.02;7.72;;;9.20;99.90;;;;;;6218434;23;20172;-63
2022/02/09 08:42:43;;;;;;;13.43;7.35;;;9.20;99.90;;;;;;6218059;23;20144;-62
2022/02/09 08:45:09;;;;;;;12.52;8.82;;;9.20;99.90;;;;;;6218307;23;20137;-63
2022/02/09 08:47:35;;;;;;;11.18;8.27;;;9.20;99.90;;;;;;6219192;23;20164;-63
2022/02/09 08:50:01;;;;;;;12.60;8.93;;;9.20;99.90;;;;;;6218635;23;20149;-63
2022/02/09 08:52:27;;;;;;;10.85;8.25;;;9.20;99.90;;;;;;6218836;23;20173;-63
2022/02/09 08:54:52;;;;;;;11.63;9.07;;;9.20;99.90;;;;;;6218973;23;20156;-63
2022/02/09 08:57:20;;;;;;;11.27;8.13;;;9.20;99.90;;;;;;6218369;23;20448;-62
2022/02/09 08:59:47;;;;;;;13.63;8.50;;;9.20;99.90;;;;;;6218415;23;20184;-62
2022/02/09 09:02:15;;;;;;;13.43;8.70;;;9.30;99.90;;;;;;6217729;23;20149;-62
2022/02/09 09:04:47;;;;;;;9.63;7.75;;;9.30;99.90;;;;;;6217547;23;20164;-62
2022/02/09 09:07:17;;;;;;;11.82;8.27;;;9.30;99.90;;;;;;6217611;23;22379;-62
2022/02/09 09:09:53;;;;;;;10.60;7.95;;;9.30;99.90;;;;;;6217835;23;20533;-63
2022/02/09 09:17:46;;;;;;;10.88;8.25;;;9.30;99.90;;;;;;6217363;23;20171;-63
2022/02/09 09:58:31;;;;;;;8.20;6.53;;;9.30;99.90;;;;;;6216982;23;20221;-62
2022/02/09 10:01:19;;;;;;;8.45;6.97;;;9.30;99.90;;;;;;6216776;23;20526;-63
2022/02/09 10:04:01;;;;;;;9.35;6.55;;;9.40;99.90;;;;;;6216692;23;20133;-61
2022/02/09 10:33:54;;;;;;;9.95;8.02;;;10.60;99.90;;;;;;6215340;23;20149;-63
2022/02/09 10:36:20;;;;;;;10.85;8.30;;;10.60;99.90;;;;;;6216296;23;20495;-63
2022/02/09 10:38:49;;;;;;;11.18;8.20;;;10.60;99.90;;;;;;6217177;23;20230;-63
2022/02/09 10:41:25;;;;;;;14.52;8.85;;;10.60;99.90;;;;;;6216388;23;20178;-63
2022/02/09 10:44:05;;;;;;;12.50;9.15;;;10.50;99.90;;;;;;6216556;23;20140;-63
2022/02/09 10:46:31;;;;;;;11.20;9.27;;;10.50;99.90;;;;;;6215545;23;20145;-63
2022/02/09 10:48:59;;;;;;;11.38;9.40;;;10.40;99.90;;;;;;6216274;23;20508;-63
2022/02/09 10:51:46;;;;;;;13.80;9.88;;;10.30;99.90;;;;;;6216501;23;20215;-62
2022/02/09 10:54:14;;;;;;;12.20;9.38;;;10.20;99.90;;;;;;6216664;23;20208;-63
2022/02/09 10:56:48;;;;;;;12.93;9.15;;;10.10;99.90;;;;;;6216216;23;20195;-62
2022/02/09 10:59:16;;;;;;;12.98;8.82;;;10.10;99.90;;;;;;6216325;23;20223;-63
2022/02/09 11:01:43;;;;;;;12.02;9.65;;;10.10;99.90;;;;;;6216474;23;20561;-62
2022/02/09 11:04:09;;;;;;;11.07;9.20;;;10.10;99.90;;;;;;6215114;23;20615;-62
2022/02/09 11:06:40;;;;;;;11.55;9.02;;;10.10;99.90;;;;;;6216024;23;20152;-63
2022/02/09 11:09:08;;;;;;;11.52;9.63;;;10.10;99.90;;;;;;6216265;23;20214;-62
2022/02/09 11:11:37;;;;;;;13.48;9.05;;;10.10;99.90;;;;;;6216112;23;20145;-62
2022/02/09 11:14:03;;;;;;;10.18;9.02;;;10.20;99.90;;;;;;6216554;23;20442;-63
2022/02/09 11:16:30;;;;;;;12.93;8.98;;;10.30;99.90;;;;;;6216217;23;20156;-65
2022/02/09 11:18:57;;;;;;;10.50;9.40;;;10.40;99.90;;;;;;6217213;23;20159;-63
2022/02/09 11:21:29;;;;;;;11.40;9.02;;;10.40;99.90;;;;;;6217171;23;20164;-63
2022/02/09 11:23:57;;;;;;;11.05;8.52;;;10.40;99.90;;;;;;6218081;23;20510;-63
2022/02/09 11:26:34;;;;;;;11.75;8.35;;;10.40;99.90;;;;;;6218214;23;20189;-63
2022/02/09 11:29:29;;;;;;;9.90;8.35;;;10.40;99.90;;;;;;6218077;23;20164;-62
2022/02/09 11:32:24;;;;;;;9.23;8.07;;;10.40;99.90;;;;;;6218004;23;20177;-62
2022/02/09 11:34:50;;;;;;;12.30;8.77;;;10.40;99.90;;;;;;6218522;23;20136;-63
2022/02/09 11:37:26;;;;;;;10.65;7.78;;;10.40;99.90;;;;;;6218434;23;20145;-64
2022/02/09 11:39:55;;;;;;;12.25;7.60;;;10.40;99.90;;;;;;6218211;23;20125;-62
2022/02/09 11:42:48;;;;;;;11.52;8.32;;;10.40;99.90;;;;;;6218177;23;20175;-62
2022/02/09 11:46:19;;;;;;;10.55;7.55;;;10.40;99.90;;;;;;6218344;23;20441;-63
2022/02/09 12:00:02;;;;;;;8.27;6.63;;;10.10;99.90;;;;;;6218312;23;20140;-62
2022/02/09 12:08:55;;;;;;;7.55;6.10;;;10.00;99.90;;;;;;6217673;23;20172;-63
2022/02/09 12:11:36;;;;;;;8.18;6.13;;;9.90;99.90;;;;;;6217825;23;20538;-63
2022/02/09 12:14:20;;;;;;;7.07;6.25;;;9.90;99.90;;;;;;6217728;23;20454;-62
2022/02/09 12:17:14;;;;;;;6.93;6.22;;;9.90;99.90;;;;;;6218178;23;20159;-60
2022/02/09 12:19:43;;;;;;;7.30;6.18;;;9.90;99.90;;;;;;6218342;23;20145;-60
2022/02/09 12:22:18;;;;;;;7.28;5.65;;;9.90;99.90;;;;;;6218249;23;20124;-61
2022/02/09 12:24:44;;;;;;;7.88;6.00;;;9.90;99.90;;;;;;6218647;23;20183;-61
2022/02/09 12:27:15;;;;;;;7.57;5.80;;;9.80;99.90;;;;;;6217891;23;20157;-60
2022/02/09 12:29:46;;;;;;;6.45;5.28;;;9.80;99.90;;;;;;6217515;23;20212;-61
2022/02/09 12:32:15;;;;;;;5.80;5.13;;;9.80;99.90;;;;;;6217628;23;20222;-61
2022/02/09 12:34:59;;;;;;;6.25;5.30;;;9.70;99.90;;;;;;6217781;23;20141;-61
2022/02/09 12:37:30;;;;;;;6.15;4.78;;;9.70;99.90;;;;;;6218113;23;20216;-61
2022/02/09 12:40:01;;;;;;;6.65;4.88;;;9.70;99.90;;;;;;6218002;23;20557;-61
2022/02/09 12:42:35;;;;;;;8.43;4.60;;;9.70;99.90;;;;;;6218096;23;20202;-61
2022/02/09 12:45:09;;;;;;;6.28;4.63;;;9.70;99.90;;;;;;6217813;23;20210;-60
2022/02/09 12:47:38;;;;;;;6.35;4.38;;;9.70;99.90;;;;;;6217491;23;20200;-60
2022/02/09 12:50:13;;;;;;;5.07;4.05;;;9.70;99.90;;;;;;6217541;23;20148;-60
2022/02/09 12:52:40;;;;;;;3.97;3.55;;;9.70;99.90;;;;;;6217387;23;20508;-61
2022/02/09 12:55:08;;;;;;;4.03;3.63;;;9.70;99.90;;;;;;6216781;23;20145;-60
2022/02/09 12:57:39;;;;;;;5.50;4.00;;;9.60;99.90;;;;;;6217687;23;20218;-59
2022/02/09 13:00:21;;;;;;;4.35;3.58;;;9.60;99.90;;;;;;6217737;23;20199;-61
2022/02/09 13:02:47;;;;;;;4.90;3.33;;;9.60;99.90;;;;;;6217665;23;20133;-60
2022/02/09 13:05:13;;;;;;;4.72;3.22;;;9.60;99.90;;;;;;6217503;23;20152;-61
2022/02/09 13:07:39;;;;;;;3.50;3.20;;;9.60;99.90;;;;;;6217253;23;20196;-60
2022/02/09 13:10:05;;;;;;;3.25;2.95;;;9.60;99.90;;;;;;6217507;23;20537;-60
2022/02/09 13:12:32;;;;;;;5.25;3.03;;;9.60;99.90;;;;;;6217641;23;20149;-61
2022/02/09 13:15:26;;;;;;;3.78;2.50;;;9.60;99.90;;;;;;6216416;23;20151;-59
2022/02/09 13:21:04;;;;;;;4.65;2.80;;;9.60;99.90;;;;;;6218038;23;20146;-60
2022/02/09 14:05:03;;;;;;;3.90;3.25;;;9.20;99.90;;;;;;6215431;23;20156;-61
2022/02/09 14:52:34;;;;;;;3.03;2.50;;;8.60;99.90;;;;;;6216368;23;20426;-61
2022/02/09 14:55:20;;;;;;;3.13;2.40;;;8.70;99.90;;;;;;6215285;23;20164;-61
2022/02/09 14:58:02;;;;;;;2.50;2.20;;;8.60;99.90;;;;;;6216646;23;20129;-61
2022/02/09 15:00:28;;;;;;;2.95;2.00;;;8.60;99.90;;;;;;6216664;23;20160;-60
2022/02/09 15:06:08;;;;;;;2.15;1.95;;;8.60;99.90;;;;;;6216858;23;20439;-61
2022/02/09 15:08:33;;;;;;;2.25;2.03;;;8.50;99.90;;;;;;6216387;23;20236;-61
2022/02/09 15:16:07;;;;;;;3.90;1.90;;;8.50;99.90;;;;;;6216800;23;20141;-61
2022/02/09 15:19:01;;;;;;;2.97;2.08;;;8.50;99.90;;;;;;6216900;23;20162;-61
2022/02/09 15:21:37;;;;;;;2.85;2.10;;;8.50;99.90;;;;;;6216249;23;20160;-61
2022/02/09 15:24:04;;;;;;;2.20;2.00;;;8.50;99.90;;;;;;6216233;23;20125;-61
2022/02/09 15:26:29;;;;;;;1.75;1.50;;;8.50;99.90;;;;;;6216737;23;20160;-61
2022/02/09 15:28:57;;;;;;;2.20;2.00;;;8.50;99.90;;;;;;6216149;23;20169;-61
2022/02/09 15:31:31;;;;;;;1.67;1.58;;;8.40;99.90;;;;;;6216242;23;20167;-61
2022/02/09 15:34:13;;;;;;;2.33;2.10;;;8.40;99.90;;;;;;6216569;23;20157;-60
2022/02/09 15:36:58;;;;;;;1.90;1.70;;;8.40;99.90;;;;;;6216376;23;20134;-61
2022/02/09 15:39:25;;;;;;;2.92;1.58;;;8.40;99.90;;;;;;6216751;23;20141;-61
2022/02/09 15:56:17;;;;;;;1.70;1.60;;;8.30;99.90;;;;;;6216889;23;20143;-61
2022/02/09 15:58:23;;;;;;;2.13;1.70;;;8.30;99.90;;;;;;6216382;23;20187;-61
2022/02/09 16:09:09;;;;;;;2.03;1.50;;;8.20;99.90;;;;;;6218704;23;20312;-61
2022/02/09 16:22:23;;;;;;;1.60;1.50;;;8.10;99.90;;;;;;6220497;23;20144;-62
2022/02/09 16:36:37;;;;;;;1.70;1.58;;;8.00;99.90;;;;;;6218691;23;20136;-60
2022/02/09 16:39:00;;;;;;;2.50;1.48;;;8.00;99.90;;;;;;6218151;23;20157;-61
2022/02/09 16:44:31;;;;;;;2.90;1.92;;;8.00;99.90;;;;;;6218568;23;20144;-60
2022/02/09 16:46:58;;;;;;;3.20;2.13;;;8.00;99.90;;;;;;6218723;23;20192;-60
2022/02/09 16:52:01;;;;;;;3.20;2.70;;;7.90;99.90;;;;;;6218858;23;20156;-61
2022/02/09 16:54:45;;;;;;;3.30;2.70;;;7.90;99.90;;;;;;6219378;23;20208;-61
2022/02/09 17:11:11;;;;;;;3.33;2.22;;;7.90;99.90;;;;;;6217565;23;20171;-61
2022/02/09 17:15:28;;;;;;;6.43;2.67;;;7.80;99.90;;;;;;6218107;23;20437;-62
2022/02/09 17:19:34;;;;;;;3.92;2.22;;;7.80;99.90;;;;;;6218283;23;20176;-60
2022/02/09 17:22:00;;;;;;;3.70;1.73;;;7.70;99.90;;;;;;6218415;23;20144;-61
2022/02/09 17:24:26;;;;;;;5.10;2.20;;;7.70;99.90;;;;;;6218341;23;20448;-60
2022/02/09 17:26:55;;;;;;;5.25;1.95;;;7.80;99.90;;;;;;6218028;23;20148;-60
2022/02/09 17:29:34;;;;;;;4.70;1.92;;;7.70;99.90;;;;;;6218386;23;20177;-59
2022/02/09 17:32:14;;;;;;;4.18;2.03;;;7.70;99.90;;;;;;6219281;23;20171;-60
2022/02/09 17:34:55;;;;;;;5.60;2.08;;;7.70;99.90;;;;;;6219692;23;20129;-60
2022/02/09 17:53:28;;;;;;;4.03;2.30;;;7.70;99.90;;;;;;6219228;23;20187;-61
2022/02/09 17:55:59;;;;;;;4.80;2.22;;;7.70;99.90;;;;;;6219034;23;20153;-61
2022/02/09 17:58:31;;;;;;;7.32;2.33;;;7.60;99.90;;;;;;6217806;23;20129;-60
2022/02/09 18:00:58;;;;;;;6.05;2.25;;;7.60;99.90;;;;;;6217847;23;20262;-60
2022/02/09 18:03:24;;;;;;;7.05;2.50;;;7.60;99.90;;;;;;6217610;23;20149;-60
2022/02/09 18:05:53;;;;;;;9.20;2.35;;;7.50;99.90;;;;;;6217932;23;20161;-60
2022/02/09 18:25:09;;;;;;;6.80;2.75;;;7.20;99.90;;;;;;6219957;23;20140;-59
2022/02/09 18:29:56;;;;;;;6.80;2.92;;;6.90;99.90;;;;;;6217379;23;20136;-61
2022/02/09 18:41:32;;;;;;;5.80;3.00;;;6.80;99.90;;;;;;6184022;23;20145;-60
2022/02/09 18:43:28;;;;;;;6.20;3.30;;;6.80;99.90;;;;;;6183942;23;20149;-60
2022/02/09 18:48:40;;;;;;;11.15;3.70;;;6.70;99.90;;;;;;6184169;23;20211;-60
2022/02/09 19:04:45;;;;;;;12.00;3.90;;;6.60;99.90;;;;;;6184577;23;20164;-61
2022/02/09 19:07:35;;;;;;;10.02;3.97;;;6.60;99.90;;;;;;6184902;23;20141;-62
2022/02/09 19:15:48;;;;;;;7.90;2.90;;;6.60;99.90;;;;;;6184611;23;20562;-61
2022/02/09 19:26:15;;;;;;;8.15;3.60;;;6.60;99.90;;;;;;6217112;23;20208;-62
2022/02/09 19:29:42;;;;;;;11.32;3.35;;;6.40;99.90;;;;;;6216725;23;20323;-61
2022/02/09 19:32:18;;;;;;;7.80;3.25;;;6.40;99.90;;;;;;6216462;23;20161;-60
2022/02/09 19:48:21;;;;;;;8.52;3.25;;;6.30;99.90;;;;;;6218692;23;20172;-61
2022/02/09 19:51:04;;;;;;;11.45;3.50;;;6.20;99.90;;;;;;6219653;23;20145;-61
2022/02/09 19:53:41;;;;;;;12.50;3.78;;;6.20;99.90;;;;;;6218839;23;20437;-60
2022/02/09 19:56:18;;;;;;;13.02;3.70;;;6.20;99.90;;;;;;6218578;23;20211;-60
2022/02/09 19:58:55;;;;;;;7.75;2.97;;;6.20;99.90;;;;;;6218610;23;20136;-62
2022/02/09 20:01:22;;;;;;;10.60;3.53;;;6.20;99.90;;;;;;6218503;23;20129;-61
2022/02/09 20:03:48;;;;;;;11.68;3.72;;;6.20;99.90;;;;;;6218564;23;20149;-62
2022/02/09 20:06:14;;;;;;;9.63;3.15;;;6.10;99.90;;;;;;6218358;23;20157;-62
2022/02/09 20:08:40;;;;;;;7.85;3.13;;;6.10;99.90;;;;;;6217864;23;20260;-61
2022/02/09 20:11:08;;;;;;;9.95;3.40;;;6.10;99.90;;;;;;6219897;23;20593;-61
2022/02/09 20:13:35;;;;;;;7.80;3.15;;;6.00;99.90;;;;;;6218458;23;20141;-61
2022/02/09 20:16:01;;;;;;;11.98;4.15;;;6.00;99.90;;;;;;6218164;23;20152;-60
2022/02/09 20:18:27;;;;;;;12.05;4.03;;;6.00;99.90;;;;;;6218464;23;20149;-60
2022/02/09 20:20:55;;;;;;;8.02;3.45;;;5.90;99.90;;;;;;6218575;23;20155;-61
2022/02/09 20:23:21;;;;;;;8.98;3.53;;;5.90;99.90;;;;;;6218099;23;20149;-61
2022/02/09 20:25:46;;;;;;;8.55;3.40;;;5.80;99.90;;;;;;6217894;23;20211;-60
2022/02/09 20:28:12;;;;;;;8.73;3.50;;;5.80;99.90;;;;;;6217590;23;20169;-60
2022/02/09 20:30:44;;;;;;;10.02;3.53;;;5.80;99.90;;;;;;6217843;23;20161;-60
2022/02/09 20:33:14;;;;;;;8.63;3.53;;;5.80;99.90;;;;;;6218389;23;20167;-61
2022/02/09 20:35:40;;;;;;;10.40;3.42;;;5.80;99.90;;;;;;6219254;23;20156;-60
2022/02/09 20:38:11;;;;;;;13.50;4.20;;;5.80;99.90;;;;;;6219227;23;20587;-60
2022/02/09 20:40:52;;;;;;;11.02;3.88;;;5.80;99.90;;;;;;6217750;23;20553;-60
2022/02/09 20:43:21;;;;;;;10.13;3.47;;;5.80;99.90;;;;;;6217887;23;20151;-60
2022/02/09 20:45:50;;;;;;;9.02;3.50;;;5.80;99.90;;;;;;6218042;23;20184;-60
2022/02/09 20:48:17;;;;;;;9.30;3.45;;;5.70;99.90;;;;;;6217345;23;20581;-60
2022/02/09 20:50:43;;;;;;;10.40;3.33;;;5.70;99.90;;;;;;6217572;23;20241;-60
2022/02/09 20:53:10;;;;;;;7.60;3.10;;;5.80;99.90;;;;;;6217517;23;20145;-60
2022/02/09 20:55:35;;;;;;;5.43;2.83;;;5.80;99.90;;;;;;6217826;23;20141;-61
2022/02/09 20:58:02;;;;;;;9.98;2.95;;;5.80;99.90;;;;;;6217612;23;20509;-61
2022/02/09 21:00:37;;;;;;;8.52;2.92;;;5.80;99.90;;;;;;6217473;23;20141;-61
2022/02/09 21:03:28;;;;;;;11.43;3.05;;;5.80;99.90;;;;;;6217744;23;20167;-60
2022/02/09 21:11:05;;;;;;;11.50;2.90;;;5.80;99.90;;;;;;6217917;23;20137;-60
2022/02/09 21:16:20;;;;;;;7.22;2.85;;;5.80;99.90;;;;;;6216358;23;20156;-61
2022/02/09 21:32:27;;;;;;;8.35;3.00;;;5.80;99.90;;;;;;6184813;23;20247;-60
2022/02/09 21:41:56;;;;;;;9.80;2.97;;;5.80;99.90;;;;;;6209033;23;20215;-60
2022/02/09 22:06:11;;;;;;;12.38;3.30;;;5.70;99.90;;;;;;6199948;23;20159;-61
2022/02/09 22:22:01;;;;;;;6.15;2.50;;;5.70;99.90;;;;;;6224809;23;20557;-61
2022/02/09 22:25:11;;;;;;;10.65;3.30;;;5.70;99.90;;;;;;6225479;23;20149;-61
2022/02/09 22:48:38;;;;;;;8.18;2.55;;;5.80;99.90;;;;;;6217272;23;20735;-61
2022/02/09 22:56:32;;;;;;;12.45;3.40;;;5.90;99.90;;;;;;6222402;23;20219;-61
2022/02/09 22:59:00;;;;;;;8.88;2.50;;;5.90;99.90;;;;;;6223197;23;20145;-61
2022/02/09 23:01:46;;;;;;;15.43;3.03;;;5.90;99.90;;;;;;6222729;23;20149;-61
2022/02/09 23:06:55;;;;;;;8.90;2.80;;;5.90;99.90;;;;;;6223803;23;20163;-61
2022/02/09 23:09:38;;;;;;;11.85;2.72;;;5.90;99.90;;;;;;6222804;23;20231;-61
2022/02/09 23:12:15;;;;;;;12.15;2.55;;;5.90;99.90;;;;;;6222599;23;20568;-61
2022/02/09 23:14:49;;;;;;;9.45;3.67;;;5.90;99.90;;;;;;6224953;23;20174;-61
2022/02/09 23:25:33;;;;;;;7.93;2.45;;;5.80;99.90;;;;;;6225319;23;20140;-61
2022/02/09 23:28:55;;;;;;;10.70;2.33;;;5.80;99.90;;;;;;6220595;23;20226;-61
